Aviation Digital Data Service (ADDS)

Output produced by METARs form (1715 UTC 24 June 2019)
found at http://www.aviationweather.gov/metar/data/
 
Forecast for: KVNY (VAN NUYS , CA, US)
Text: KVNY 241319Z 2413/2512 12003KT 4SM BR OVC006
Forecast period: 1300 to 1630 UTC 24 June 2019
Forecast type: FROM: standard forecast or significant change
Winds: from the ESE (120 degrees) at 3 MPH (3 knots; 1.5 m/s)
Visibility: 4 miles (6 km)
Ceiling: 600 feet AGL
Clouds: overcast cloud deck at 600 feet AGL
Weather: BR  (mist)
Text: FM241630 14004KT 5SM BR BKN010
Forecast period: 1630 to 1800 UTC 24 June 2019
Forecast type: FROM: standard forecast or significant change
Winds: from the SE (140 degrees) at 5 MPH (4 knots; 2.1 m/s)
Visibility: 5 miles (8 km)
Ceiling: 1000 feet AGL
Clouds: broken clouds at 1000 feet AGL
Weather: BR  (mist)
Text: FM241800 15008KT P6SM SKC
Forecast period: 1800 UTC 24 June 2019 to 0730 UTC 25 June 2019
Forecast type: FROM: standard forecast or significant change
Winds: from the SSE (150 degrees) at 9 MPH (8 knots; 4.1 m/s)
Visibility: 6 or more miles 10+ km)
Clouds: clear skies
Weather: no significant weather forecast for this period
Text: FM250730 13004KT 2SM BR BKN003
Forecast period: 0730 to 1200 UTC 25 June 2019
Forecast type: FROM: standard forecast or significant change
Winds: from the SE (130 degrees) at 5 MPH (4 knots; 2.1 m/s)
Visibility: 2.00 miles (3.22 km)
Ceiling: 300 feet AGL
Clouds: broken clouds at 300 feet AGL
Weather: BR  (mist)